Time;durP1;ratioP1;P1;durP2;ratioP2;P2;SDS_P1;SDS_P2;PMS_P1;PMS_P2;Temp;Humidity;BMP_temperature;BMP_pressure;BME280_temperature;BME280_humidity;BME280_pressure;Samples;Min_cycle;Max_cycle;Signal;HPM_P1;HPM_P2
2023/02/18 00:00:59;;;;;;;;;;;;;;;22.55;34.52;97762.91;5088665;28;19943;-89
2023/02/18 00:03:26;;;;;;;;;;;;;;;23.47;33.37;97769.31;5093923;28;19920;-89
2023/02/18 00:05:53;;;;;;;;;;;;;;;23.33;34.82;97756.41;5086691;28;19920;-89
2023/02/18 00:08:19;;;;;;;;;;;;;;;23.36;33.17;97763.97;5090274;28;19921;-88
2023/02/18 00:10:46;;;;;;;;;;;;;;;23.05;35.46;97766.25;5091676;28;19985;-88
2023/02/18 00:13:12;;;;;;;;;;;;;;;24.30;32.10;97759.13;5092179;28;20292;-88
2023/02/18 00:15:38;;;;;;;;;;;;;;;23.95;32.18;97738.41;5082540;28;20438;-88
2023/02/18 00:18:05;;;;;;;;;;;;;;;23.19;35.11;97762.34;5067264;28;19951;-88
2023/02/18 00:20:35;;;;;;;;;;;;;;;23.48;34.00;97760.47;5088595;28;20781;-88
2023/02/18 00:23:01;;;;;;;;;;;;;;;23.09;34.45;97764.16;5085514;28;20343;-88
2023/02/18 00:25:27;;;;;;;;;;;;;;;23.86;33.33;97763.50;5087947;28;19955;-88
2023/02/18 00:27:53;;;;;;;;;;;;;;;24.11;33.40;97755.25;5090951;28;19916;-88
2023/02/18 00:30:19;;;;;;;;;;;;;;;23.24;34.85;97748.59;5088658;28;19926;-88
2023/02/18 00:32:45;;;;;;;;;;;;;;;23.98;33.64;97766.38;5088233;28;19921;-88
2023/02/18 00:35:11;;;;;;;;;;;;;;;24.00;33.30;97751.91;5074707;28;19940;-88
2023/02/18 00:37:37;;;;;;;;;;;;;;;24.43;32.83;97743.16;5094048;28;19986;-88
2023/02/18 00:40:04;;;;;;;;;;;;;;;22.46;35.65;97745.94;5094711;28;20374;-89
2023/02/18 00:42:30;;;;;;;;;;;;;;;22.85;35.16;97756.34;5095892;28;19924;-88
2023/02/18 00:44:56;;;;;;;;;;;;;;;23.20;35.39;97773.09;5087851;28;19920;-88
2023/02/18 00:47:22;;;;;;;;;;;;;;;22.47;36.32;97767.09;5079989;28;19924;-88
2023/02/18 00:49:48;;;;;;;;;;;;;;;22.31;37.12;97764.22;5089968;28;19921;-88
2023/02/18 00:52:14;;;;;;;;;;;;;;;23.23;33.60;97761.03;5096256;28;19950;-88
2023/02/18 00:54:40;;;;;;;;;;;;;;;23.79;33.16;97764.47;5091475;28;20377;-88
2023/02/18 00:57:06;;;;;;;;;;;;;;;22.85;34.89;97753.53;5096600;28;20371;-88
2023/02/18 00:59:32;;;;;;;;;;;;;;;23.20;35.54;97767.50;5093007;28;19974;-88
2023/02/18 01:01:58;;;;;;;;;;;;;;;23.25;35.34;97757.78;5086407;28;19974;-88
2023/02/18 01:04:24;;;;;;;;;;;;;;;23.92;33.19;97762.53;5089157;28;20046;-89
2023/02/18 01:06:51;;;;;;;;;;;;;;;23.71;33.33;97762.31;5090536;28;20264;-88
2023/02/18 01:09:17;;;;;;;;;;;;;;;24.05;33.49;97754.19;5089839;28;19920;-88
2023/02/18 01:11:43;;;;;;;;;;;;;;;22.78;36.10;97750.91;5093088;28;20007;-88
2023/02/18 01:14:09;;;;;;;;;;;;;;;22.48;35.76;97749.88;5088522;28;19920;-89
2023/02/18 01:16:35;;;;;;;;;;;;;;;22.67;36.24;97753.91;5096122;28;19984;-88
2023/02/18 01:19:01;;;;;;;;;;;;;;;23.15;35.38;97776.41;5093991;28;20015;-88
2023/02/18 01:21:27;;;;;;;;;;;;;;;23.09;34.98;97778.16;5096350;28;19952;-89
2023/02/18 01:23:53;;;;;;;;;;;;;;;21.87;37.05;97773.81;5092641;28;19924;-89
2023/02/18 01:26:19;;;;;;;;;;;;;;;21.62;38.20;97801.38;5089017;28;19927;-87
2023/02/18 01:28:45;;;;;;;;;;;;;;;20.95;40.31;97768.88;5103674;28;19972;-88
2023/02/18 01:31:13;;;;;;;;;;;;;;;21.09;40.13;97807.78;5068460;28;20003;-88
2023/02/18 01:33:39;;;;;;;;;;;;;;;19.21;43.19;97872.09;5094573;28;20057;-88
2023/02/18 01:36:05;;;;;;;;;;;;;;;17.83;46.61;97805.81;5093330;28;20284;-91
2023/02/18 01:38:31;;;;;;;;;;;;;;;17.10;51.70;97887.81;5093313;28;20435;-88
2023/02/18 01:40:57;;;;;;;;;;;;;;;17.31;50.08;97889.84;5098173;28;20383;-90
2023/02/18 01:43:23;;;;;;;;;;;;;;;16.96;50.06;97884.19;5090081;28;19928;-89
2023/02/18 01:46:15;;;;;;;;;;;;;;;17.47;48.39;97872.81;5090550;28;19924;-89
2023/02/18 01:48:45;;;;;;;;;;;;;;;18.11;46.37;97891.09;5081910;28;19920;-88
2023/02/18 01:51:17;;;;;;;;;;;;;;;18.46;45.18;97873.63;5090006;28;19924;-88
2023/02/18 01:53:53;;;;;;;;;;;;;;;18.27;45.49;97869.25;5075938;28;19920;-89
2023/02/18 01:56:24;;;;;;;;;;;;;;;18.98;44.03;97871.81;5092326;28;19923;-88
2023/02/18 01:58:51;;;;;;;;;;;;;;;18.26;44.82;97859.31;5090583;28;19921;-89
2023/02/18 02:01:18;;;;;;;;;;;;;;;17.99;46.55;97874.84;5093265;28;20280;-89
2023/02/18 02:03:44;;;;;;;;;;;;;;;18.63;44.25;97876.31;5080332;28;19971;-88
2023/02/18 02:06:14;;;;;;;;;;;;;;;19.19;42.78;97868.91;5085245;28;19967;-89
2023/02/18 02:08:40;;;;;;;;;;;;;;;20.10;41.03;97875.03;5070813;28;19931;-88
2023/02/18 02:11:14;;;;;;;;;;;;;;;21.26;38.03;97874.53;5085446;28;19916;-88
2023/02/18 02:13:47;;;;;;;;;;;;;;;19.45;40.54;97898.22;5083548;28;19920;-88
2023/02/18 02:16:31;;;;;;;;;;;;;;;18.70;42.79;97883.84;5089972;28;20268;-88
2023/02/18 02:19:16;;;;;;;;;;;;;;;19.65;41.27;97893.72;5092851;28;20371;-89
2023/02/18 02:21:42;;;;;;;;;;;;;;;21.18;37.78;97883.44;5075062;28;19943;-89
2023/02/18 02:24:20;;;;;;;;;;;;;;;19.90;40.00;97886.75;5092062;28;19920;-89
2023/02/18 02:26:45;;;;;;;;;;;;;;;19.17;40.74;97891.59;5092240;28;19920;-88
2023/02/18 02:29:32;;;;;;;;;;;;;;;19.96;40.29;97882.31;5087546;28;19920;-88
2023/02/18 02:32:19;;;;;;;;;;;;;;;19.94;40.30;97883.94;5060352;28;20287;-88
2023/02/18 02:34:57;;;;;;;;;;;;;;;20.51;38.28;97885.00;5090826;28;19931;-89
2023/02/18 02:37:24;;;;;;;;;;;;;;;19.21;41.22;97897.13;5094810;28;19916;-88
2023/02/18 02:40:02;;;;;;;;;;;;;;;20.54;38.61;97867.44;5080538;28;19920;-88
2023/02/18 02:42:47;;;;;;;;;;;;;;;20.11;38.90;97880.22;5088577;28;19923;-89
2023/02/18 02:45:34;;;;;;;;;;;;;;;20.11;37.84;97885.00;5090075;28;19920;-88
2023/02/18 02:48:15;;;;;;;;;;;;;;;19.96;39.02;97892.66;5043472;28;20384;-89
2023/02/18 02:51:04;;;;;;;;;;;;;;;19.67;39.62;97885.75;5052470;28;19932;-88
2023/02/18 02:53:32;;;;;;;;;;;;;;;20.53;37.66;97881.81;5047989;28;19921;-89
2023/02/18 02:55:58;;;;;;;;;;;;;;;21.70;35.62;97883.88;5049975;28;19920;-88
2023/02/18 02:58:24;;;;;;;;;;;;;;;21.11;36.21;97884.34;5040905;28;20376;-89
2023/02/18 03:00:59;;;;;;;;;;;;;;;20.58;37.17;97892.53;5043719;28;19989;-88
2023/02/18 03:03:44;;;;;;;;;;;;;;;20.37;37.23;97909.47;5054032;28;20496;-89
2023/02/18 03:06:17;;;;;;;;;;;;;;;21.08;36.21;97904.69;5049094;28;19935;-88
2023/02/18 03:08:56;;;;;;;;;;;;;;;21.32;35.35;97905.59;5053784;28;19928;-88
2023/02/18 03:11:22;;;;;;;;;;;;;;;21.61;34.76;97911.56;5049095;28;19951;-88
2023/02/18 03:14:00;;;;;;;;;;;;;;;22.29;33.62;97915.69;5050890;28;20364;-88
2023/02/18 03:16:44;;;;;;;;;;;;;;;21.44;34.38;97907.03;5044229;28;19999;-88
2023/02/18 03:19:27;;;;;;;;;;;;;;;21.59;34.31;97913.97;5043934;28;19927;-88
2023/02/18 03:21:59;;;;;;;;;;;;;;;20.97;35.81;97901.22;5052516;28;19917;-89
2023/02/18 03:24:33;;;;;;;;;;;;;;;22.18;33.24;97923.47;5052347;28;19931;-88
2023/02/18 03:27:19;;;;;;;;;;;;;;;21.85;33.54;97929.97;5050176;28;20347;-88
2023/02/18 03:29:47;;;;;;;;;;;;;;;22.47;33.02;97932.97;5041532;28;19931;-89
2023/02/18 03:32:16;;;;;;;;;;;;;;;21.77;33.25;97942.47;5051545;28;20435;-88
2023/02/18 03:34:45;;;;;;;;;;;;;;;22.49;32.61;97933.31;5044238;28;19967;-88
2023/02/18 03:37:12;;;;;;;;;;;;;;;22.58;32.58;97941.94;5052698;28;19971;-88
2023/02/18 03:39:40;;;;;;;;;;;;;;;21.50;33.10;97933.25;5051368;28;20304;-89
2023/02/18 03:42:07;;;;;;;;;;;;;;;21.97;32.23;97946.97;5051595;28;19916;-88
2023/02/18 03:44:33;;;;;;;;;;;;;;;20.93;34.96;97945.13;5054015;28;19924;-88
2023/02/18 03:46:59;;;;;;;;;;;;;;;21.41;32.72;97941.38;5079899;28;19924;-89
2023/02/18 03:49:25;;;;;;;;;;;;;;;22.34;31.95;97945.97;5082529;28;19927;-89
2023/02/18 03:51:51;;;;;;;;;;;;;;;21.44;32.64;97943.34;5085774;28;19921;-89
2023/02/18 03:54:17;;;;;;;;;;;;;;;20.84;34.11;97944.81;5058883;28;19928;-88
2023/02/18 03:56:43;;;;;;;;;;;;;;;20.66;33.76;97950.59;5087217;28;20691;-89
2023/02/18 03:59:10;;;;;;;;;;;;;;;19.37;35.78;97955.16;5086048;28;19927;-89
2023/02/18 04:01:36;;;;;;;;;;;;;;;19.87;35.99;97951.66;5091228;28;19931;-88
2023/02/18 04:04:02;;;;;;;;;;;;;;;20.74;34.80;97956.09;5090036;28;19926;-88
2023/02/18 04:06:28;;;;;;;;;;;;;;;21.40;33.18;97964.94;5086733;28;19920;-89
2023/02/18 04:08:54;;;;;;;;;;;;;;;21.54;33.57;97959.94;5075527;28;20418;-89
2023/02/18 04:11:20;;;;;;;;;;;;;;;20.51;35.06;97963.09;5094956;28;19923;-89
2023/02/18 04:13:46;;;;;;;;;;;;;;;20.56;35.41;97962.66;5093688;28;19924;-89
2023/02/18 04:16:12;;;;;;;;;;;;;;;20.00;36.65;97958.31;5090582;28;19924;-89
2023/02/18 04:18:38;;;;;;;;;;;;;;;20.72;34.45;97964.91;5097518;28;19939;-89
2023/02/18 04:21:05;;;;;;;;;;;;;;;19.84;36.81;97958.03;5087434;28;20403;-89
2023/02/18 04:23:31;;;;;;;;;;;;;;;19.47;37.09;97960.66;5083599;28;19924;-89
2023/02/18 04:25:56;;;;;;;;;;;;;;;20.32;36.08;97954.53;5079231;28;19927;-89
2023/02/18 04:28:23;;;;;;;;;;;;;;;18.98;38.25;97966.41;5076802;28;20307;-89
2023/02/18 04:30:49;;;;;;;;;;;;;;;19.69;35.77;97976.06;5086267;28;19917;-89
2023/02/18 04:33:15;;;;;;;;;;;;;;;20.47;33.61;97965.13;5093340;28;19927;-90
2023/02/18 04:35:41;;;;;;;;;;;;;;;20.69;34.35;97974.09;5096022;28;19916;-88
2023/02/18 04:38:07;;;;;;;;;;;;;;;20.76;33.27;97945.31;5096607;28;19950;-89
2023/02/18 04:40:33;;;;;;;;;;;;;;;19.56;36.08;97972.13;5086141;28;20535;-89
2023/02/18 04:43:00;;;;;;;;;;;;;;;19.28;35.26;97966.69;5082835;28;19915;-89
2023/02/18 04:45:27;;;;;;;;;;;;;;;20.02;34.50;97961.47;5084969;28;20259;-89
2023/02/18 04:47:53;;;;;;;;;;;;;;;19.08;33.82;97960.00;5092277;28;20344;-90
2023/02/18 04:50:20;;;;;;;;;;;;;;;19.75;33.63;97960.50;5089352;28;19927;-89
2023/02/18 04:52:46;;;;;;;;;;;;;;;18.03;35.94;97975.66;5086325;28;19923;-90
2023/02/18 04:55:12;;;;;;;;;;;;;;;18.02;32.82;97928.81;5086173;28;19920;-91
2023/02/18 04:57:38;;;;;;;;;;;;;;;17.45;34.36;97969.56;5094015;28;19920;-90
2023/02/18 05:00:06;;;;;;;;;;;;;;;17.48;34.41;97954.91;5096498;28;19959;-89
2023/02/18 05:02:32;;;;;;;;;;;;;;;17.77;34.08;97979.56;5093067;28;19930;-89
2023/02/18 05:04:58;;;;;;;;;;;;;;;18.03;32.52;97983.97;5092106;28;19974;-89
2023/02/18 05:07:24;;;;;;;;;;;;;;;19.08;31.73;97974.72;5080409;28;20487;-88
2023/02/18 05:09:50;;;;;;;;;;;;;;;19.31;30.38;97977.00;5091164;28;19960;-88
2023/02/18 05:12:16;;;;;;;;;;;;;;;18.63;30.89;97970.06;5091743;28;19920;-89
2023/02/18 05:14:42;;;;;;;;;;;;;;;18.75;33.31;97971.63;5092490;28;19916;-89
2023/02/18 05:17:08;;;;;;;;;;;;;;;18.60;30.35;97977.22;5074260;28;19924;-88
2023/02/18 05:19:34;;;;;;;;;;;;;;;19.78;29.57;97981.97;5081034;28;20396;-88
2023/02/18 05:22:00;;;;;;;;;;;;;;;19.37;31.18;97980.22;5066914;28;20003;-89
2023/02/18 05:24:26;;;;;;;;;;;;;;;19.08;30.10;97988.63;5086495;28;19956;-88
2023/02/18 05:26:52;;;;;;;;;;;;;;;19.97;28.40;97989.00;5091344;28;19932;-88
2023/02/18 05:29:18;;;;;;;;;;;;;;;20.05;29.21;97998.13;5078123;28;20015;-88
2023/02/18 05:31:44;;;;;;;;;;;;;;;20.15;29.17;98005.59;5082507;28;20049;-89
2023/02/18 05:34:10;;;;;;;;;;;;;;;19.47;30.67;97998.84;5092463;28;19920;-88
2023/02/18 05:36:36;;;;;;;;;;;;;;;20.00;29.73;97991.75;5084706;28;19974;-89
2023/02/18 05:39:03;;;;;;;;;;;;;;;19.55;29.96;97984.50;5086455;28;19920;-89
2023/02/18 05:41:29;;;;;;;;;;;;;;;18.96;30.32;97994.63;5088283;28;19938;-90
2023/02/18 05:46:40;;;;;;;;;;;;;;;18.01;32.36;97994.69;5087138;28;19932;-90
2023/02/18 05:49:06;;;;;;;;;;;;;;;17.78;30.72;98002.59;5078409;28;19920;-91
2023/02/18 05:51:32;;;;;;;;;;;;;;;18.69;29.51;97999.06;5078764;28;19924;-90
2023/02/18 05:53:58;;;;;;;;;;;;;;;19.40;28.28;97999.66;5089262;28;20418;-89
2023/02/18 05:56:24;;;;;;;;;;;;;;;18.71;28.99;97995.88;5093396;28;19920;-89
2023/02/18 05:58:50;;;;;;;;;;;;;;;19.14;29.17;97992.59;5087675;28;19952;-91
2023/02/18 06:01:16;;;;;;;;;;;;;;;19.12;30.30;97999.75;5094934;28;19924;-90
2023/02/18 06:03:42;;;;;;;;;;;;;;;20.33;26.33;98018.22;5095462;28;20389;-90
2023/02/18 06:06:08;;;;;;;;;;;;;;;19.59;28.58;98024.25;5091837;28;19920;-91
2023/02/18 06:08:34;;;;;;;;;;;;;;;20.02;27.79;98021.22;5087127;28;19920;-89
2023/02/18 06:11:00;;;;;;;;;;;;;;;19.38;30.39;98029.09;5083908;28;19920;-90
2023/02/18 06:13:26;;;;;;;;;;;;;;;19.45;28.94;98046.59;5090945;28;19924;-91
2023/02/18 06:15:53;;;;;;;;;;;;;;;19.84;27.02;98012.97;5084519;28;19969;-91
2023/02/18 06:18:20;;;;;;;;;;;;;;;20.85;26.50;98021.75;5092945;28;19939;-90
2023/02/18 06:20:46;;;;;;;;;;;;;;;21.77;25.36;98015.13;5094556;28;20057;-89
2023/02/18 06:23:13;;;;;;;;;;;;;;;21.18;26.46;98018.25;5092425;28;19927;-91
2023/02/18 06:25:39;;;;;;;;;;;;;;;20.70;27.25;98016.75;5088052;28;19952;-93
2023/02/18 06:28:05;;;;;;;;;;;;;;;20.44;28.35;98032.09;5091252;28;19920;-90
2023/02/18 06:30:31;;;;;;;;;;;;;;;20.06;27.77;98025.56;5085980;28;20358;-90
2023/02/18 06:32:57;;;;;;;;;;;;;;;19.59;30.74;98035.38;5088580;28;19920;-90
2023/02/18 06:35:23;;;;;;;;;;;;;;;19.71;28.63;98032.16;5094507;28;19947;-92
2023/02/18 06:37:49;;;;;;;;;;;;;;;18.03;30.67;98028.44;5089975;28;19920;-93
2023/02/18 06:40:17;;;;;;;;;;;;;;;18.72;31.22;98042.75;5094232;28;19924;-92
2023/02/18 06:42:43;;;;;;;;;;;;;;;19.66;28.46;98031.78;5090186;28;20026;-95
2023/02/18 06:45:09;;;;;;;;;;;;;;;18.43;30.66;98024.47;5089607;28;20366;-95
2023/02/18 06:47:35;;;;;;;;;;;;;;;19.52;28.49;98027.06;5088972;28;19939;-91
2023/02/18 06:50:01;;;;;;;;;;;;;;;19.03;28.40;98030.78;5074984;28;19920;-93
2023/02/18 06:52:29;;;;;;;;;;;;;;;19.37;27.23;98039.44;5092057;28;20383;-90
2023/02/18 06:54:55;;;;;;;;;;;;;;;21.06;26.25;98032.75;5091327;28;19920;-90
2023/02/18 06:57:21;;;;;;;;;;;;;;;19.54;29.08;98041.38;5075983;28;19920;-91
2023/02/18 06:59:47;;;;;;;;;;;;;;;19.39;28.29;98044.63;5082600;28;19948;-89
2023/02/18 07:02:13;;;;;;;;;;;;;;;19.93;26.95;98039.19;5086855;28;19920;-91
2023/02/18 07:04:39;;;;;;;;;;;;;;;20.35;27.47;98046.50;5088495;28;19927;-89
2023/02/18 07:07:05;;;;;;;;;;;;;;;19.73;26.76;98026.16;5092284;28;19920;-89
2023/02/18 07:09:31;;;;;;;;;;;;;;;19.82;27.09;98038.44;5089800;28;19926;-89
2023/02/18 07:11:57;;;;;;;;;;;;;;;19.13;31.41;98040.31;5092268;28;20290;-90
2023/02/18 07:14:23;;;;;;;;;;;;;;;18.98;27.13;98049.88;5090603;28;19920;-91
2023/02/18 07:16:50;;;;;;;;;;;;;;;19.41;27.68;98031.91;5092684;28;20388;-88
2023/02/18 07:19:16;;;;;;;;;;;;;;;19.61;28.59;98032.19;5073726;28;19953;-89
2023/02/18 07:21:42;;;;;;;;;;;;;;;20.34;29.14;98055.28;5088049;28;19916;-94
2023/02/18 07:24:08;;;;;;;;;;;;;;;20.80;25.76;98057.69;5093144;28;20268;-89
2023/02/18 07:26:34;;;;;;;;;;;;;;;22.35;23.95;98048.25;5076317;28;19927;-91
2023/02/18 07:29:00;;;;;;;;;;;;;;;22.41;25.56;98057.75;5090362;28;20355;-91
2023/02/18 07:31:26;;;;;;;;;;;;;;;21.35;24.59;98047.97;5072121;28;20026;-90
2023/02/18 07:33:52;;;;;;;;;;;;;;;19.17;25.52;98046.66;5090863;28;19992;-94
2023/02/18 07:36:18;;;;;;;;;;;;;;;18.71;30.94;98013.38;5088122;28;19970;-93
2023/02/18 07:38:44;;;;;;;;;;;;;;;18.93;29.50;98048.28;5089416;28;19916;-93
2023/02/18 07:41:18;;;;;;;;;;;;;;;19.30;28.98;98039.44;5093549;28;20323;-94
2023/02/18 07:43:44;;;;;;;;;;;;;;;19.37;28.27;98047.03;5097282;28;20402;-92
2023/02/18 07:46:10;;;;;;;;;;;;;;;18.12;33.89;98058.59;5093628;28;19924;-92
2023/02/18 07:48:36;;;;;;;;;;;;;;;18.62;29.82;98024.88;5089866;28;19924;-92
2023/02/18 07:51:06;;;;;;;;;;;;;;;18.85;29.41;98068.19;5091573;28;19939;-93
2023/02/18 07:53:32;;;;;;;;;;;;;;;17.72;31.32;98066.03;5084871;28;19984;-93
2023/02/18 07:55:59;;;;;;;;;;;;;;;17.59;33.14;98052.91;5090954;28;19928;-95
2023/02/18 07:58:29;;;;;;;;;;;;;;;19.43;27.65;98029.50;5087747;28;20355;-91
2023/02/18 08:00:55;;;;;;;;;;;;;;;20.23;29.22;98032.25;5098593;28;19973;-91
2023/02/18 08:03:23;;;;;;;;;;;;;;;19.97;27.19;98036.38;5087280;28;19917;-92
2023/02/18 08:05:50;;;;;;;;;;;;;;;18.65;28.12;98028.84;5079241;28;19959;-93
2023/02/18 08:08:19;;;;;;;;;;;;;;;18.24;29.98;98034.00;5087959;28;19938;-93
2023/02/18 08:10:45;;;;;;;;;;;;;;;18.93;29.69;98022.44;5087218;28;20379;-96
2023/02/18 08:13:11;;;;;;;;;;;;;;;19.90;27.77;98033.63;5088976;28;19920;-91
2023/02/18 08:15:38;;;;;;;;;;;;;;;19.27;29.43;98029.13;5087423;28;19924;-91
2023/02/18 08:18:05;;;;;;;;;;;;;;;19.37;30.62;98041.47;5090922;28;20014;-92
2023/02/18 08:20:34;;;;;;;;;;;;;;;19.37;28.65;98033.09;5083512;28;19966;-94
2023/02/18 08:23:00;;;;;;;;;;;;;;;19.56;26.92;98027.03;5092659;28;20268;-91
2023/02/18 08:25:26;;;;;;;;;;;;;;;19.57;25.06;98023.06;5091770;28;20356;-91
2023/02/18 08:27:52;;;;;;;;;;;;;;;19.61;27.34;98033.00;5092785;28;20283;-90
2023/02/18 08:30:18;;;;;;;;;;;;;;;18.09;29.35;98043.50;5093453;28;19939;-89
2023/02/18 08:32:44;;;;;;;;;;;;;;;19.01;29.72;98032.38;5091113;28;19928;-91
2023/02/18 08:35:11;;;;;;;;;;;;;;;19.90;29.35;98059.50;5098118;28;19924;-91
2023/02/18 08:37:37;;;;;;;;;;;;;;;19.96;24.81;98035.59;5096251;28;20015;-91
2023/02/18 08:40:03;;;;;;;;;;;;;;;19.57;28.46;98050.91;5079908;28;19924;-89
2023/02/18 08:42:29;;;;;;;;;;;;;;;19.17;32.33;98049.44;5091134;28;19943;-91
2023/02/18 08:44:55;;;;;;;;;;;;;;;20.05;29.21;98056.66;5090126;28;19920;-90
2023/02/18 08:47:21;;;;;;;;;;;;;;;21.12;26.06;98035.88;5087919;28;19964;-90
2023/02/18 08:49:47;;;;;;;;;;;;;;;20.86;24.75;98031.72;5090891;28;19978;-91
2023/02/18 08:52:13;;;;;;;;;;;;;;;19.62;27.43;98028.22;5089225;28;20329;-92
2023/02/18 08:54:39;;;;;;;;;;;;;;;19.93;29.70;98043.94;5091920;28;20387;-90
2023/02/18 08:57:05;;;;;;;;;;;;;;;20.22;28.75;98025.09;5089137;28;19920;-93
2023/02/18 08:59:31;;;;;;;;;;;;;;;20.59;25.96;98041.91;5089456;28;19927;-91
2023/02/18 09:01:57;;;;;;;;;;;;;;;21.32;26.57;98051.59;5088316;28;19972;-90
2023/02/18 09:04:23;;;;;;;;;;;;;;;20.80;28.74;98052.91;5088985;28;19928;-90
2023/02/18 09:06:49;;;;;;;;;;;;;;;20.79;25.99;98044.94;5095125;28;19924;-89
2023/02/18 09:09:16;;;;;;;;;;;;;;;19.57;29.45;98028.63;5064056;28;19924;-90
2023/02/18 09:11:42;;;;;;;;;;;;;;;19.46;31.23;98045.41;5080897;28;19920;-92
2023/02/18 09:14:08;;;;;;;;;;;;;;;19.75;26.14;98043.25;5080622;28;19928;-90
2023/02/18 09:16:34;;;;;;;;;;;;;;;20.41;25.81;98027.34;5078781;28;20086;-90
2023/02/18 09:19:00;;;;;;;;;;;;;;;20.92;25.21;98018.09;5084798;28;19930;-94
2023/02/18 09:21:26;;;;;;;;;;;;;;;20.49;29.31;98048.41;5093949;28;19928;-90
2023/02/18 09:23:52;;;;;;;;;;;;;;;19.85;30.62;98025.69;5080652;28;19923;-91
2023/02/18 09:26:21;;;;;;;;;;;;;;;19.46;27.51;98047.38;5085067;28;19920;-93
2023/02/18 09:28:48;;;;;;;;;;;;;;;19.61;27.18;98052.47;5087789;28;19916;-91
2023/02/18 09:31:16;;;;;;;;;;;;;;;21.47;24.93;98041.03;5084469;28;19927;-91
2023/02/18 09:33:44;;;;;;;;;;;;;;;21.19;27.40;98058.91;5083540;28;19920;-93
2023/02/18 09:36:10;;;;;;;;;;;;;;;22.52;24.36;98055.56;5085137;28;19954;-94
2023/02/18 09:38:36;;;;;;;;;;;;;;;23.00;24.71;98057.97;5093955;28;20410;-96
2023/02/18 09:41:05;;;;;;;;;;;;;;;21.53;26.31;98033.78;5095041;28;19947;-95
2023/02/18 09:43:57;;;;;;;;;;;;;;;21.13;26.49;98055.00;5089670;28;20364;-96
2023/02/18 09:46:26;;;;;;;;;;;;;;;21.61;27.35;98054.06;5084954;28;19924;-94
2023/02/18 09:48:53;;;;;;;;;;;;;;;22.15;24.76;98069.72;5088255;28;19920;-95
2023/02/18 09:51:19;;;;;;;;;;;;;;;21.19;26.33;98058.91;5092675;28;19917;-94
2023/02/18 09:53:45;;;;;;;;;;;;;;;21.68;27.39;98054.75;5087652;28;19934;-93
2023/02/18 09:56:21;;;;;;;;;;;;;;;21.30;28.30;98040.06;5087114;28;19951;-95
2023/02/18 09:58:48;;;;;;;;;;;;;;;21.26;27.67;98053.25;5093737;28;19967;-95
2023/02/18 10:01:17;;;;;;;;;;;;;;;21.67;26.35;98049.59;5091497;28;20391;-91
2023/02/18 10:03:44;;;;;;;;;;;;;;;22.49;25.63;98028.44;5087447;28;19966;-92
2023/02/18 10:06:33;;;;;;;;;;;;;;;22.87;25.95;98045.03;5081128;28;19920;-92
2023/02/18 10:09:02;;;;;;;;;;;;;;;22.59;26.56;98049.84;5076437;28;19973;-92
2023/02/18 10:11:29;;;;;;;;;;;;;;;20.77;28.41;98039.75;5077349;28;19935;-95
2023/02/18 10:13:57;;;;;;;;;;;;;;;19.76;28.29;98033.72;5084644;28;19926;-95
2023/02/18 10:16:23;;;;;;;;;;;;;;;18.87;33.02;98019.31;5082461;28;19931;-93
2023/02/18 10:18:52;;;;;;;;;;;;;;;19.89;30.55;98026.47;5094775;28;19920;-94
2023/02/18 10:21:21;;;;;;;;;;;;;;;21.31;26.73;98024.06;5090388;28;19916;-91
2023/02/18 10:24:05;;;;;;;;;;;;;;;21.71;24.66;98008.41;5086601;28;19947;-92
2023/02/18 10:26:33;;;;;;;;;;;;;;;19.97;28.37;97997.38;5090584;28;19934;-93
2023/02/18 10:28:59;;;;;;;;;;;;;;;20.26;26.01;98006.34;5088562;28;19920;-94
2023/02/18 10:31:33;;;;;;;;;;;;;;;20.33;30.83;97989.53;5082653;28;19928;-93
2023/02/18 10:34:04;;;;;;;;;;;;;;;19.99;28.16;97997.75;5084181;28;19928;-92
2023/02/18 10:36:53;;;;;;;;;;;;;;;19.95;28.03;97986.63;5084070;28;19920;-93
2023/02/18 10:39:31;;;;;;;;;;;;;;;20.11;26.85;97980.56;5071683;28;20388;-95
2023/02/18 10:41:57;;;;;;;;;;;;;;;20.14;28.34;97985.28;5076569;28;19952;-93
2023/02/18 10:44:23;;;;;;;;;;;;;;;20.05;27.90;97993.31;5079367;28;19974;-94
2023/02/18 10:46:55;;;;;;;;;;;;;;;20.13;28.74;97997.66;5087249;28;20395;-96
2023/02/18 10:49:40;;;;;;;;;;;;;;;20.02;26.18;97961.47;5084727;28;19935;-93
2023/02/18 10:52:12;;;;;;;;;;;;;;;21.02;28.15;97989.28;5073884;28;19929;-92
2023/02/18 10:54:49;;;;;;;;;;;;;;;20.25;29.85;97993.63;5060253;28;21878;-92
2023/02/18 10:57:22;;;;;;;;;;;;;;;20.85;29.95;97990.25;5074434;28;20280;-93
2023/02/18 10:59:59;;;;;;;;;;;;;;;20.57;25.86;97980.19;5078954;28;19920;-94
2023/02/18 11:02:29;;;;;;;;;;;;;;;20.10;27.39;97983.72;5086078;28;19956;-94
2023/02/18 11:04:56;;;;;;;;;;;;;;;19.92;27.94;97976.31;5088452;28;19920;-95
2023/02/18 11:07:25;;;;;;;;;;;;;;;19.49;29.46;97988.88;5096109;28;19963;-91
2023/02/18 11:09:53;;;;;;;;;;;;;;;19.67;29.92;97986.81;5087836;28;19965;-96
2023/02/18 11:12:32;;;;;;;;;;;;;;;19.23;29.86;97972.66;5078845;28;19925;-90
2023/02/18 11:15:04;;;;;;;;;;;;;;;19.88;27.30;97980.31;5082148;28;19927;-90
2023/02/18 11:17:31;;;;;;;;;;;;;;;19.45;30.69;97957.50;5079986;28;19924;-93
2023/02/18 11:19:58;;;;;;;;;;;;;;;19.52;29.82;97990.88;5086322;28;20114;-93
2023/02/18 11:22:28;;;;;;;;;;;;;;;20.16;26.15;97970.97;5091550;28;19949;-94
2023/02/18 11:24:56;;;;;;;;;;;;;;;20.27;30.08;97960.53;5090759;28;19927;-96
2023/02/18 11:27:27;;;;;;;;;;;;;;;21.74;26.21;97969.25;5094280;28;19924;-91
2023/02/18 11:29:58;;;;;;;;;;;;;;;21.15;26.65;97963.25;5083389;28;19928;-92
2023/02/18 11:32:27;;;;;;;;;;;;;;;19.63;32.77;97974.88;5076136;28;20675;-92
2023/02/18 11:34:54;;;;;;;;;;;;;;;19.04;31.04;97970.38;5078136;28;20009;-92
2023/02/18 11:37:21;;;;;;;;;;;;;;;19.51;31.19;97946.72;5068002;28;19924;-89
2023/02/18 11:39:49;;;;;;;;;;;;;;;20.35;28.09;97964.88;5076467;28;19932;-91
2023/02/18 11:42:16;;;;;;;;;;;;;;;20.16;29.09;97957.81;5070178;28;20298;-91
2023/02/18 11:44:48;;;;;;;;;;;;;;;20.31;31.85;97969.66;5064101;28;20006;-90
2023/02/18 11:47:14;;;;;;;;;;;;;;;20.04;30.15;97972.25;5086390;28;19978;-90
2023/02/18 11:49:41;;;;;;;;;;;;;;;21.26;28.52;97954.75;5079567;28;20296;-90
2023/02/18 11:52:27;;;;;;;;;;;;;;;20.48;28.42;97949.19;5073659;28;19986;-90
2023/02/18 11:55:03;;;;;;;;;;;;;;;20.67;29.47;97937.44;5087064;28;19973;-89
2023/02/18 11:57:30;;;;;;;;;;;;;;;21.38;27.62;97936.66;5080538;28;19995;-89
2023/02/18 12:00:02;;;;;;;;;;;;;;;20.92;30.53;97914.84;5083851;28;20024;-90
2023/02/18 12:02:28;;;;;;;;;;;;;;;19.76;31.97;97927.88;5082942;28;20019;-88
2023/02/18 12:05:10;;;;;;;;;;;;;;;20.73;28.76;97916.25;5061508;28;19968;-91
2023/02/18 12:07:46;;;;;;;;;;;;;;;20.24;29.82;97923.13;5083482;28;19947;-89
2023/02/18 12:10:44;;;;;;;;;;;;;;;19.18;33.17;97921.00;5074420;28;20352;-91
2023/02/18 12:13:16;;;;;;;;;;;;;;;20.09;31.93;97934.78;5072891;28;19938;-92
2023/02/18 12:15:43;;;;;;;;;;;;;;;19.36;33.18;97920.94;5089451;28;20437;-90
2023/02/18 12:18:15;;;;;;;;;;;;;;;19.43;33.04;97918.13;5083545;28;19979;-90
2023/02/18 12:21:04;;;;;;;;;;;;;;;19.56;33.00;97919.22;5078547;28;19967;-90
2023/02/18 12:23:36;;;;;;;;;;;;;;;20.06;30.80;97914.09;5087123;28;20335;-91
2023/02/18 12:26:32;;;;;;;;;;;;;;;20.14;32.55;97893.31;5071528;28;19912;-91
2023/02/18 12:29:10;;;;;;;;;;;;;;;20.60;30.67;97885.31;4990598;28;19934;-91
2023/02/18 12:31:45;;;;;;;;;;;;;;;20.32;30.57;97899.56;5092300;28;20298;-92
2023/02/18 12:34:23;;;;;;;;;;;;;;;20.02;31.60;97900.19;5086256;28;19917;-91
2023/02/18 12:37:01;;;;;;;;;;;;;;;19.84;33.19;97873.66;5082149;28;19979;-95
2023/02/18 12:39:45;;;;;;;;;;;;;;;20.53;32.40;97890.19;5086180;28;19950;-89
2023/02/18 12:42:14;;;;;;;;;;;;;;;21.73;28.54;97885.81;5063895;28;20343;-89
2023/02/18 12:44:44;;;;;;;;;;;;;;;21.52;30.37;97867.38;5089321;28;19916;-88
2023/02/18 12:47:31;;;;;;;;;;;;;;;20.08;31.35;97866.28;5089012;28;19924;-89
2023/02/18 12:49:57;;;;;;;;;;;;;;;21.30;29.68;97854.97;5067680;28;19932;-88
2023/02/18 12:52:25;;;;;;;;;;;;;;;20.77;28.79;97852.06;5077694;28;19928;-88
2023/02/18 12:55:10;;;;;;;;;;;;;;;21.95;28.64;97854.34;5078103;28;19920;-88
2023/02/18 12:57:54;;;;;;;;;;;;;;;21.35;30.46;97840.53;5072843;28;19928;-86
2023/02/18 13:00:26;;;;;;;;;;;;;;;22.14;28.18;97827.66;5090027;28;19959;-86